Terminal Aerodrome Forecast
Issued by NWS

Home | Current Version | Previous Version | Text Only | Print | Product List | Glossary On
Versions: 1 2 3 4 5 6 7 8 9 10 11 12 13 14
364
FTUS42 TJSJ 242346
TAFJMZ
TAF
TJMZ 242346Z 2500/2524 VRB05KT P6SM SCT050
     FM251330 09008KT P6SM VCSH SCT030
     FM251800 23012KT P6SM VCTS BKN030CB
     FM252200 12006KT P6SM SCT030=

USA.gov is the U.S. government's official web portal to all federal, state and local government web resources and services.